Time;durP1;ratioP1;P1;durP2;ratioP2;P2;SDS_P1;SDS_P2;PMS_P1;PMS_P2;Temp;Humidity;BMP_temperature;BMP_pressure;BME280_temperature;BME280_humidity;BME280_pressure;Samples;Min_cycle;Max_cycle;Signal;HPM_P1;HPM_P2
2024/01/11 00:04:17;;;;;;;;;;;;;;;16.62;39.15;101114.22;10329075;28;811;-78
2024/01/11 00:09:13;;;;;;;;;;;;;;;16.56;39.48;101102.03;10328298;28;941;-77
2024/01/11 00:14:09;;;;;;;;;;;;;;;16.56;39.32;101109.06;10328086;28;775;-77
2024/01/11 00:19:05;;;;;;;;;;;;;;;16.56;39.27;101095.91;10327203;28;1905;-78
2024/01/11 00:24:01;;;;;;;;;;;;;;;16.56;39.38;101093.28;10327663;28;903;-77
2024/01/11 00:28:57;;;;;;;;;;;;;;;16.56;39.18;101088.88;10328313;28;848;-77
2024/01/11 00:33:53;;;;;;;;;;;;;;;16.54;39.32;101077.50;10327235;28;947;-77
2024/01/11 00:38:49;;;;;;;;;;;;;;;16.54;39.21;101082.78;10327322;28;1906;-78
2024/01/11 00:43:44;;;;;;;;;;;;;;;16.54;39.25;101085.41;10328142;28;775;-77
2024/01/11 00:48:40;;;;;;;;;;;;;;;16.53;39.26;101083.69;10326725;28;961;-78
2024/01/11 00:53:36;;;;;;;;;;;;;;;16.53;39.03;101088.03;10327138;28;886;-78
2024/01/11 00:58:32;;;;;;;;;;;;;;;16.52;39.11;101086.31;10326897;28;1977;-78
2024/01/11 01:03:28;;;;;;;;;;;;;;;16.50;39.04;101080.22;10326213;28;799;-77
2024/01/11 01:08:24;;;;;;;;;;;;;;;16.47;39.07;101070.59;10325511;28;888;-78
2024/01/11 01:13:20;;;;;;;;;;;;;;;16.48;39.24;101082.00;10326079;28;822;-78
2024/01/11 01:18:16;;;;;;;;;;;;;;;16.46;39.19;101083.81;10326424;28;1913;-78
2024/01/11 01:23:11;;;;;;;;;;;;;;;16.47;39.28;101089.03;10325659;28;877;-78
2024/01/11 01:28:07;;;;;;;;;;;;;;;16.47;39.23;101096.06;10326293;28;861;-78
2024/01/11 01:33:03;;;;;;;;;;;;;;;16.44;39.20;101089.06;10325527;28;754;-78
2024/01/11 01:37:59;;;;;;;;;;;;;;;16.44;39.20;101100.47;10324952;28;1902;-78
2024/01/11 01:42:55;;;;;;;;;;;;;;;16.44;39.08;101097.84;10326005;28;866;-78
2024/01/11 01:47:51;;;;;;;;;;;;;;;16.44;38.92;101097.84;10325882;28;938;-77
2024/01/11 01:52:47;;;;;;;;;;;;;;;16.44;39.13;101103.09;10325508;28;988;-77
2024/01/11 01:57:43;;;;;;;;;;;;;;;16.43;39.10;101085.59;10325166;28;1918;-78
2024/01/11 02:02:39;;;;;;;;;;;;;;;16.44;39.16;101095.19;10325794;28;825;-78
2024/01/11 02:07:35;;;;;;;;;;;;;;;16.46;39.03;101089.06;10324856;28;905;-78
2024/01/11 02:12:31;;;;;;;;;;;;;;;16.42;38.95;101091.72;10324800;28;799;-78
2024/01/11 02:17:26;;;;;;;;;;;;;;;16.42;39.21;101086.47;10324505;28;1918;-78
2024/01/11 02:22:22;;;;;;;;;;;;;;;16.43;39.20;101090.84;10325153;28;917;-79
2024/01/11 02:27:18;;;;;;;;;;;;;;;16.41;39.11;101094.41;10331471;28;929;-78
2024/01/11 02:32:14;;;;;;;;;;;;;;;16.42;39.18;101094.34;10333278;28;779;-78
2024/01/11 02:37:10;;;;;;;;;;;;;;;16.43;39.10;101097.88;10331824;28;1910;-78
2024/01/11 02:42:06;;;;;;;;;;;;;;;16.40;39.12;101101.44;10332338;28;907;-78
2024/01/11 02:47:02;;;;;;;;;;;;;;;16.41;38.92;101097.03;10331532;28;933;-78
2024/01/11 02:51:57;;;;;;;;;;;;;;;16.41;39.05;101099.66;10331416;28;829;-78
2024/01/11 02:56:53;;;;;;;;;;;;;;;16.37;38.89;101106.75;10331053;28;2047;-78
2024/01/11 03:01:49;;;;;;;;;;;;;;;16.39;39.16;101098.81;10330919;28;818;-78
2024/01/11 03:06:45;;;;;;;;;;;;;;;16.37;38.95;101092.69;10331869;28;829;-78
2024/01/11 03:11:41;;;;;;;;;;;;;;;16.38;39.13;101092.69;10330590;28;763;-78
2024/01/11 03:16:39;;;;;;;;;;;;;;;16.39;39.17;101097.03;10330368;28;1898;-78
2024/01/11 03:21:35;;;;;;;;;;;;;;;16.38;39.08;101081.28;10330913;28;949;-77
2024/01/11 03:26:32;;;;;;;;;;;;;;;16.39;38.90;101110.19;10329585;28;940;-78
2024/01/11 03:31:28;;;;;;;;;;;;;;;16.40;38.98;101125.13;10330439;28;952;-77
2024/01/11 03:36:24;;;;;;;;;;;;;;;16.38;38.81;101123.41;10329352;28;1969;-77
2024/01/11 03:41:20;;;;;;;;;;;;;;;16.38;39.13;101134.78;10329612;28;942;-77
2024/01/11 03:46:16;;;;;;;;;;;;;;;16.38;39.12;101128.66;10329353;28;810;-77
2024/01/11 03:51:12;;;;;;;;;;;;;;;16.35;39.03;101131.34;10329733;28;806;-78
2024/01/11 03:56:08;;;;;;;;;;;;;;;16.37;39.03;101133.06;10328881;28;1987;-77
2024/01/11 04:01:04;;;;;;;;;;;;;;;16.36;38.94;101141.81;10328705;28;846;-77
2024/01/11 04:06:00;;;;;;;;;;;;;;;16.41;38.83;101139.13;10328466;28;921;-77
2024/01/11 04:10:55;;;;;;;;;;;;;;;16.42;38.68;101136.47;10329020;28;822;-77
2024/01/11 04:15:51;;;;;;;;;;;;;;;16.43;38.79;101140.84;10328084;28;1959;-77
2024/01/11 04:20:47;;;;;;;;;;;;;;;16.46;38.68;101128.53;10327868;28;830;-77
2024/01/11 04:25:43;;;;;;;;;;;;;;;16.45;38.75;101146.06;10327703;28;976;-77
2024/01/11 04:30:39;;;;;;;;;;;;;;;16.42;38.83;101140.84;10328120;28;837;-78
2024/01/11 04:35:35;;;;;;;;;;;;;;;16.46;38.71;101141.69;10326974;28;1893;-77
2024/01/11 04:40:31;;;;;;;;;;;;;;;16.46;38.59;101136.44;10327305;28;858;-78
2024/01/11 04:45:26;;;;;;;;;;;;;;;16.50;38.47;101123.19;10326715;28;925;-77
2024/01/11 04:50:22;;;;;;;;;;;;;;;16.54;38.57;101148.56;10326420;28;976;-77
2024/01/11 04:55:18;;;;;;;;;;;;;;;16.51;38.54;101146.00;10326484;28;1965;-78
2024/01/11 05:00:14;;;;;;;;;;;;;;;16.51;38.61;101146.00;10325789;28;1098;-77
2024/01/11 05:05:10;;;;;;;;;;;;;;;16.54;38.38;101150.34;10326876;28;949;-78
2024/01/11 05:10:06;;;;;;;;;;;;;;;16.52;38.46;101168.78;10326109;28;761;-78
2024/01/11 05:15:02;;;;;;;;;;;;;;;16.55;38.57;101181.03;10326482;28;1897;-78
2024/01/11 05:19:58;;;;;;;;;;;;;;;16.62;38.13;101173.00;10326419;28;875;-78
2024/01/11 05:24:54;;;;;;;;;;;;;;;16.60;38.20;101185.31;10326494;28;870;-77
2024/01/11 05:29:50;;;;;;;;;;;;;;;16.58;38.41;101188.88;10326283;28;901;-78
2024/01/11 05:34:46;;;;;;;;;;;;;;;16.65;38.18;101191.38;10325874;28;1965;-78
2024/01/11 05:39:42;;;;;;;;;;;;;;;16.62;38.44;101196.69;10325305;28;1334;-77
2024/01/11 05:44:38;;;;;;;;;;;;;;;16.65;38.12;101203.69;10325329;28;850;-77
2024/01/11 05:49:33;;;;;;;;;;;;;;;16.68;38.03;101192.25;10325052;28;952;-81
2024/01/11 05:54:29;;;;;;;;;;;;;;;16.73;38.09;101195.66;10325789;28;815;-73
2024/01/11 05:59:26;;;;;;;;;;;;;;;16.76;38.19;101208.78;10329411;28;1894;-78
2024/01/11 06:04:21;;;;;;;;;;;;;;;16.76;38.17;101212.28;10333844;28;867;-78
2024/01/11 06:09:17;;;;;;;;;;;;;;;16.77;37.79;101198.28;10333085;28;828;-76
2024/01/11 06:14:13;;;;;;;;;;;;;;;16.83;38.20;101179.72;10332907;28;822;-78
2024/01/11 06:19:09;;;;;;;;;;;;;;;16.81;38.11;101170.97;10332586;28;1894;-74
2024/01/11 06:24:05;;;;;;;;;;;;;;;16.80;38.17;101163.13;10333068;28;858;-79
2024/01/11 06:29:01;;;;;;;;;;;;;;;16.86;37.81;101155.97;10332286;28;824;-78
2024/01/11 06:33:57;;;;;;;;;;;;;;;16.79;38.36;101171.91;10332094;28;871;-75
2024/01/11 06:38:52;;;;;;;;;;;;;;;16.64;38.38;101196.69;10331456;28;1960;-77
2024/01/11 06:43:48;;;;;;;;;;;;;;;16.78;37.88;101194.72;10331838;28;826;-78
2024/01/11 06:48:44;;;;;;;;;;;;;;;16.77;37.98;101190.38;10331669;28;921;-78
2024/01/11 06:53:40;;;;;;;;;;;;;;;16.81;37.92;101186.78;10332573;28;779;-78
2024/01/11 06:58:36;;;;;;;;;;;;;;;16.84;37.89;101193.75;10330472;28;1902;-78
2024/01/11 07:03:32;;;;;;;;;;;;;;;16.81;37.90;101210.47;10331618;28;845;-77
2024/01/11 07:08:28;;;;;;;;;;;;;;;16.74;38.37;101216.72;10329859;28;941;-77
2024/01/11 07:13:23;;;;;;;;;;;;;;;16.67;38.45;101224.72;10330094;28;928;-76
2024/01/11 07:18:19;;;;;;;;;;;;;;;16.59;38.43;101220.44;10330391;28;1956;-77
2024/01/11 07:23:15;;;;;;;;;;;;;;;16.47;38.33;101228.50;10330306;28;885;-77
2024/01/11 07:28:11;;;;;;;;;;;;;;;16.43;38.16;101222.44;10327576;28;1109;-76
2024/01/11 07:33:07;;;;;;;;;;;;;;;16.32;38.59;101215.56;10326786;28;1085;-76
2024/01/11 07:38:03;;;;;;;;;;;;;;;16.37;38.49;101219.00;10326973;28;1902;-74
2024/01/11 07:42:59;;;;;;;;;;;;;;;16.39;38.34;101223.34;10329032;28;870;-77
2024/01/11 07:47:55;;;;;;;;;;;;;;;16.40;38.18;101217.22;10328675;28;770;-77
2024/01/11 07:52:50;;;;;;;;;;;;;;;16.43;38.56;101211.91;10328989;28;865;-77
2024/01/11 07:57:46;;;;;;;;;;;;;;;16.54;38.29;101202.97;10327408;28;1905;-78
2024/01/11 08:02:42;;;;;;;;;;;;;;;16.60;38.01;101206.38;10328513;28;860;-76
2024/01/11 08:07:38;;;;;;;;;;;;;;;16.62;38.27;101195.84;10327761;28;879;-79
2024/01/11 08:12:34;;;;;;;;;;;;;;;16.69;38.14;101202.75;10328122;28;801;-77
2024/01/11 08:17:30;;;;;;;;;;;;;;;16.72;37.83;101217.63;10327306;28;1890;-76
2024/01/11 08:22:28;;;;;;;;;;;;;;;16.75;37.98;101231.63;10328326;28;842;-77
2024/01/11 08:27:24;;;;;;;;;;;;;;;16.77;38.19;101234.25;10327224;28;858;-78
2024/01/11 08:32:20;;;;;;;;;;;;;;;16.75;38.05;101231.63;10327244;28;755;-77
2024/01/11 08:37:15;;;;;;;;;;;;;;;16.80;38.05;101250.00;10326612;28;1949;-77
2024/01/11 08:42:11;;;;;;;;;;;;;;;16.81;38.10;101257.88;10326796;28;861;-76
2024/01/11 08:47:08;;;;;;;;;;;;;;;16.80;38.23;101253.50;10326315;28;814;-77
2024/01/11 08:52:05;;;;;;;;;;;;;;;16.74;38.23;101264.13;10326370;28;886;-76
2024/01/11 08:57:01;;;;;;;;;;;;;;;16.78;37.92;101276.34;10325792;28;1910;-76
2024/01/11 09:01:57;;;;;;;;;;;;;;;16.83;38.31;101271.03;10326051;28;909;-76
2024/01/11 09:06:53;;;;;;;;;;;;;;;16.85;38.20;101277.16;10326173;28;1000;-77
2024/01/11 09:11:49;;;;;;;;;;;;;;;16.84;38.46;101271.00;10326566;28;878;-75
2024/01/11 09:16:45;;;;;;;;;;;;;;;16.84;38.71;101270.13;10325267;28;1953;-77
2024/01/11 09:21:42;;;;;;;;;;;;;;;16.86;38.64;101268.34;10325486;28;893;-74
2024/01/11 09:26:38;;;;;;;;;;;;;;;16.85;38.47;101288.56;10325104;28;934;-76
2024/01/11 09:31:33;;;;;;;;;;;;;;;16.86;38.69;101289.41;10325165;28;904;-76
2024/01/11 09:36:29;;;;;;;;;;;;;;;16.87;38.50;101293.78;10324926;28;1940;-76
2024/01/11 09:41:25;;;;;;;;;;;;;;;16.93;38.43;101300.75;10325154;28;795;-77
2024/01/11 09:46:21;;;;;;;;;;;;;;;16.88;38.55;101298.16;10325298;28;985;-77
2024/01/11 09:51:17;;;;;;;;;;;;;;;16.92;38.37;101309.53;10325164;28;1036;-77
2024/01/11 09:56:13;;;;;;;;;;;;;;;16.92;38.45;101301.63;10325958;28;1965;-77
2024/01/11 10:01:09;;;;;;;;;;;;;;;16.80;38.64;101311.44;10325637;28;881;-72
2024/01/11 10:06:05;;;;;;;;;;;;;;;16.65;38.46;101307.22;10324929;28;842;-71
2024/01/11 10:11:00;;;;;;;;;;;;;;;16.66;38.22;101318.63;10324800;28;893;-72
2024/01/11 10:15:56;;;;;;;;;;;;;;;16.72;37.85;101322.97;10324646;28;1882;-76
2024/01/11 10:20:52;;;;;;;;;;;;;;;16.81;37.78;101328.97;10324655;28;876;-77
2024/01/11 10:25:48;;;;;;;;;;;;;;;16.79;37.87;101322.88;10322610;28;1129;-76
2024/01/11 10:30:44;;;;;;;;;;;;;;;16.77;38.02;101319.41;10324869;28;802;-77
2024/01/11 10:35:40;;;;;;;;;;;;;;;16.86;37.57;101313.13;10323665;28;1889;-78
2024/01/11 10:40:36;;;;;;;;;;;;;;;16.89;37.65;101310.44;10323591;28;820;-77
2024/01/11 10:45:32;;;;;;;;;;;;;;;16.92;37.68;101304.25;10326294;28;865;-77
2024/01/11 10:50:28;;;;;;;;;;;;;;;16.93;37.60;101295.47;10331598;28;931;-70
2024/01/11 10:55:24;;;;;;;;;;;;;;;16.84;37.93;101307.00;10330790;28;1973;-77
2024/01/11 11:00:20;;;;;;;;;;;;;;;16.83;37.68;101294.72;10332193;28;943;-73
2024/01/11 11:05:16;;;;;;;;;;;;;;;16.94;37.58;101307.75;10330513;28;1681;-78
2024/01/11 11:10:13;;;;;;;;;;;;;;;16.94;37.46;101295.44;10330963;28;868;-76
2024/01/11 11:15:09;;;;;;;;;;;;;;;16.98;37.65;101291.00;10330503;28;1955;-78
2024/01/11 11:20:05;;;;;;;;;;;;;;;16.99;37.58;101287.47;10330378;28;886;-76
2024/01/11 11:25:01;;;;;;;;;;;;;;;16.99;37.59;101280.44;10330316;28;765;-77
2024/01/11 11:29:57;;;;;;;;;;;;;;;17.01;37.56;101272.53;10330087;28;956;-77
2024/01/11 11:34:53;;;;;;;;;;;;;;;17.04;37.72;101261.94;10330727;28;928;-76
2024/01/11 11:39:49;;;;;;;;;;;;;;;17.04;37.83;101261.94;10329613;28;1281;-76
2024/01/11 11:44:45;;;;;;;;;;;;;;;17.09;37.68;101254.81;10329510;28;802;-76
2024/01/11 11:49:41;;;;;;;;;;;;;;;17.09;37.71;101257.47;10329978;28;802;-76
2024/01/11 11:54:37;;;;;;;;;;;;;;;17.09;37.55;101244.28;10329633;28;877;-76
2024/01/11 11:59:33;;;;;;;;;;;;;;;17.12;37.49;101249.50;10328010;28;1973;-76
2024/01/11 12:04:29;;;;;;;;;;;;;;;17.17;37.57;101260.84;10328104;28;1191;-76
2024/01/11 12:09:25;;;;;;;;;;;;;;;17.16;37.56;101264.38;10328523;28;862;-76
2024/01/11 12:14:21;;;;;;;;;;;;;;;17.22;37.54;101266.03;10328293;28;879;-76
2024/01/11 12:19:17;;;;;;;;;;;;;;;17.28;37.44;101272.06;10328005;28;1901;-69
2024/01/11 12:24:13;;;;;;;;;;;;;;;17.28;37.46;101276.47;10327884;28;967;-82
2024/01/11 12:29:09;;;;;;;;;;;;;;;17.19;37.69;101284.53;10328252;28;903;-75
2024/01/11 12:34:04;;;;;;;;;;;;;;;17.34;37.32;101286.03;10328106;28;785;-74
2024/01/11 12:39:00;;;;;;;;;;;;;;;17.38;37.41;101293.00;10327525;28;1902;-75
2024/01/11 12:43:56;;;;;;;;;;;;;;;17.45;37.42;101284.09;10327037;28;894;-77
2024/01/11 12:48:52;;;;;;;;;;;;;;;17.30;37.41;101291.34;10326897;28;761;-76
2024/01/11 12:53:48;;;;;;;;;;;;;;;17.34;37.42;101288.66;10326777;28;833;-77
2024/01/11 12:58:46;;;;;;;;;;;;;;;17.51;37.06;101278.72;10327124;28;1918;-77
2024/01/11 13:03:42;;;;;;;;;;;;;;;17.61;36.96;101280.28;10327008;28;846;-76
2024/01/11 13:08:42;;;;;;;;;;;;;;;17.72;36.70;101275.66;10325666;28;813;-76
2024/01/11 13:13:38;;;;;;;;;;;;;;;17.78;36.68;101271.19;10326092;28;934;-77
2024/01/11 13:18:34;;;;;;;;;;;;;;;17.86;36.36;101261.38;10325545;28;1955;-77
2024/01/11 13:23:31;;;;;;;;;;;;;;;17.96;36.51;101260.31;10325827;28;949;-72
2024/01/11 13:28:26;;;;;;;;;;;;;;;17.98;36.78;101268.22;10326270;28;964;-74
2024/01/11 13:33:23;;;;;;;;;;;;;;;18.03;36.75;101263.72;10325683;28;845;-75
2024/01/11 13:38:19;;;;;;;;;;;;;;;18.03;36.78;101266.34;10326493;28;1977;-74
2024/01/11 13:43:17;;;;;;;;;;;;;;;17.96;36.71;101262.94;10325959;28;1044;-77
2024/01/11 13:48:13;;;;;;;;;;;;;;;18.01;36.80;101249.66;10322309;28;1259;-76
2024/01/11 13:53:08;;;;;;;;;;;;;;;18.00;36.80;101253.19;10324593;28;818;-77
2024/01/11 13:58:04;;;;;;;;;;;;;;;17.95;36.82;101258.59;10325103;28;1914;-75
2024/01/11 14:03:01;;;;;;;;;;;;;;;17.92;37.06;101253.34;10324753;28;876;-76
2024/01/11 14:08:01;;;;;;;;;;;;;;;17.80;37.17;101238.63;10324554;28;861;-75
2024/01/11 14:12:57;;;;;;;;;;;;;;;17.77;37.08;101248.34;10324469;28;892;-79
2024/01/11 14:17:52;;;;;;;;;;;;;;;17.75;37.16;101241.31;10324515;28;1894;-74
2024/01/11 14:22:51;;;;;;;;;;;;;;;17.73;37.62;101248.38;10331828;28;945;-77
2024/01/11 14:27:47;;;;;;;;;;;;;;;17.68;37.50;101239.72;10333011;28;830;-77
2024/01/11 14:32:43;;;;;;;;;;;;;;;17.65;37.55;101241.53;10332565;28;926;-77
2024/01/11 14:37:39;;;;;;;;;;;;;;;17.52;37.91;101228.56;10331508;28;1936;-77
2024/01/11 14:42:36;;;;;;;;;;;;;;;17.39;38.01;101228.84;10331565;28;950;-78
2024/01/11 14:47:32;;;;;;;;;;;;;;;17.29;38.16;101242.19;10331791;28;821;-77
2024/01/11 14:52:28;;;;;;;;;;;;;;;17.19;38.23;101251.16;10331504;28;814;-78
2024/01/11 14:57:24;;;;;;;;;;;;;;;17.16;38.50;101261.75;10331076;28;1965;-78
2024/01/11 15:02:19;;;;;;;;;;;;;;;17.14;38.49;101270.56;10330994;28;873;-79
2024/01/11 15:07:15;;;;;;;;;;;;;;;17.12;38.56;101259.16;10331558;28;863;-79
2024/01/11 15:12:11;;;;;;;;;;;;;;;17.06;38.53;101254.88;10330575;28;801;-78
2024/01/11 15:17:08;;;;;;;;;;;;;;;17.08;38.77;101276.78;10330958;28;1961;-78
2024/01/11 15:22:04;;;;;;;;;;;;;;;17.16;38.45;101296.00;10330112;28;989;-79
2024/01/11 15:27:01;;;;;;;;;;;;;;;17.14;38.73;101295.13;10330608;28;806;-78
2024/01/11 15:31:57;;;;;;;;;;;;;;;17.16;38.69;101310.91;10328547;28;1233;-77
2024/01/11 15:36:53;;;;;;;;;;;;;;;17.16;38.58;101317.06;10329838;28;1959;-74
2024/01/11 15:41:49;;;;;;;;;;;;;;;17.24;38.30;101315.19;10329511;28;773;-78
2024/01/11 15:46:45;;;;;;;;;;;;;;;17.18;38.63;101315.25;10330030;28;818;-78
2024/01/11 15:51:41;;;;;;;;;;;;;;;17.21;38.54;101320.50;10329375;28;870;-77
2024/01/11 15:56:37;;;;;;;;;;;;;;;17.21;38.34;101315.22;10329892;28;1906;-77
2024/01/11 16:01:34;;;;;;;;;;;;;;;17.19;38.51;101316.16;10329450;28;846;-77
2024/01/11 16:06:30;;;;;;;;;;;;;;;17.20;38.60;101310.84;10328578;28;908;-78
2024/01/11 16:11:26;;;;;;;;;;;;;;;17.21;38.29;101312.59;10328402;28;980;-78
2024/01/11 16:16:22;;;;;;;;;;;;;;;17.19;38.54;101305.63;10328139;28;1956;-77
2024/01/11 16:21:18;;;;;;;;;;;;;;;17.22;38.27;101306.41;10328093;28;952;-78
2024/01/11 16:26:14;;;;;;;;;;;;;;;17.19;38.28;101295.94;10328457;28;1037;-77
2024/01/11 16:31:10;;;;;;;;;;;;;;;17.21;38.29;101302.06;10327626;28;898;-77
2024/01/11 16:36:06;;;;;;;;;;;;;;;17.18;38.49;101296.81;10327394;28;1882;-78
2024/01/11 16:41:02;;;;;;;;;;;;;;;17.19;38.26;101293.31;10327166;28;936;-77
2024/01/11 16:45:58;;;;;;;;;;;;;;;17.25;38.18;101298.47;10326301;28;897;-78
2024/01/11 16:50:54;;;;;;;;;;;;;;;17.24;38.31;101296.72;10327516;28;909;-78
2024/01/11 16:55:50;;;;;;;;;;;;;;;17.25;38.26;101308.13;10326680;28;1914;-79
2024/01/11 17:00:46;;;;;;;;;;;;;;;17.26;38.17;101321.28;10326561;28;860;-78
2024/01/11 17:05:42;;;;;;;;;;;;;;;17.20;38.45;101321.38;10326954;28;849;-77
2024/01/11 17:10:39;;;;;;;;;;;;;;;17.26;38.19;101302.81;10327117;28;861;-78
2024/01/11 17:15:35;;;;;;;;;;;;;;;17.27;38.32;101309.00;10325967;28;1886;-78
2024/01/11 17:20:30;;;;;;;;;;;;;;;17.29;38.07;101309.81;10326017;28;872;-78
2024/01/11 17:25:26;;;;;;;;;;;;;;;17.28;38.14;101287.00;10325279;28;937;-78
2024/01/11 17:30:22;;;;;;;;;;;;;;;17.29;38.14;101289.63;10325734;28;769;-77
2024/01/11 17:35:19;;;;;;;;;;;;;;;17.30;38.32;101301.03;10325862;28;1989;-78
2024/01/11 17:40:15;;;;;;;;;;;;;;;17.33;38.04;101292.19;10325860;28;853;-78
2024/01/11 17:45:11;;;;;;;;;;;;;;;17.28;38.06;101276.47;10326006;28;877;-78
2024/01/11 17:50:07;;;;;;;;;;;;;;;17.28;38.29;101266.78;10325875;28;929;-78
2024/01/11 17:55:03;;;;;;;;;;;;;;;17.29;38.11;101276.44;10329143;28;790;-77
2024/01/11 17:59:59;;;;;;;;;;;;;;;17.31;38.00;101265.84;10334520;28;1953;-76
2024/01/11 18:04:55;;;;;;;;;;;;;;;17.19;38.51;101277.50;10334137;28;866;-77
2024/01/11 18:09:52;;;;;;;;;;;;;;;17.28;38.18;101287.00;10332683;28;766;-78
2024/01/11 18:14:48;;;;;;;;;;;;;;;17.28;38.07;101294.91;10334188;28;857;-78
2024/01/11 18:19:44;;;;;;;;;;;;;;;17.33;38.06;101295.69;10333299;28;1893;-78
2024/01/11 18:24:40;;;;;;;;;;;;;;;17.29;38.10;101289.63;10333449;28;858;-78
2024/01/11 18:29:36;;;;;;;;;;;;;;;17.34;38.12;101275.47;10333059;28;793;-78
2024/01/11 18:34:32;;;;;;;;;;;;;;;17.35;37.98;101278.09;10332874;28;842;-78
2024/01/11 18:39:28;;;;;;;;;;;;;;;17.31;37.90;101277.25;10333057;28;1988;-79
2024/01/11 18:44:25;;;;;;;;;;;;;;;17.35;38.15;101277.25;10331876;28;966;-78
2024/01/11 18:49:21;;;;;;;;;;;;;;;17.35;37.94;101277.25;10331861;28;830;-77
2024/01/11 18:54:17;;;;;;;;;;;;;;;17.33;38.16;101273.75;10331456;28;866;-79
2024/01/11 18:59:13;;;;;;;;;;;;;;;17.35;37.96;101287.78;10331863;28;1957;-78
2024/01/11 19:04:09;;;;;;;;;;;;;;;17.33;37.97;101273.75;10331550;28;785;-78
2024/01/11 19:09:05;;;;;;;;;;;;;;;17.38;38.07;101274.53;10330743;28;802;-78
2024/01/11 19:14:00;;;;;;;;;;;;;;;17.38;38.04;101264.00;10331041;28;857;-78
2024/01/11 19:18:56;;;;;;;;;;;;;;;17.35;38.11;101262.28;10330519;28;1979;-77
2024/01/11 19:23:52;;;;;;;;;;;;;;;17.37;37.90;101242.06;10331012;28;831;-78
2024/01/11 19:28:48;;;;;;;;;;;;;;;17.36;38.23;101247.34;10330273;28;877;-78
2024/01/11 19:33:44;;;;;;;;;;;;;;;17.37;38.17;101257.88;10330027;28;849;-78
2024/01/11 19:38:40;;;;;;;;;;;;;;;17.38;38.02;101258.72;10329209;28;1913;-78
2024/01/11 19:43:38;;;;;;;;;;;;;;;17.39;37.99;101271.88;10329725;28;965;-78
2024/01/11 19:48:34;;;;;;;;;;;;;;;17.40;38.18;101285.94;10328946;28;1189;-78
2024/01/11 19:53:30;;;;;;;;;;;;;;;17.39;38.05;101282.41;10329340;28;843;-78
2024/01/11 19:58:25;;;;;;;;;;;;;;;17.37;38.28;101288.59;10328996;28;1955;-78
2024/01/11 20:03:21;;;;;;;;;;;;;;;17.39;38.08;101286.81;10329618;28;884;-78
2024/01/11 20:08:17;;;;;;;;;;;;;;;17.39;38.05;101281.53;10329330;28;1194;-78
2024/01/11 20:13:13;;;;;;;;;;;;;;;17.39;38.12;101271.88;10328442;28;1000;-78
2024/01/11 20:18:09;;;;;;;;;;;;;;;17.41;38.18;101278.00;10328059;28;1961;-78
2024/01/11 20:23:05;;;;;;;;;;;;;;;17.37;38.10;101285.97;10327542;28;850;-78
2024/01/11 20:28:01;;;;;;;;;;;;;;;17.38;38.20;101288.59;10328501;28;860;-78
2024/01/11 20:32:57;;;;;;;;;;;;;;;17.38;38.22;101291.22;10327713;28;802;-78
2024/01/11 20:37:53;;;;;;;;;;;;;;;17.31;38.27;101292.22;10327685;28;1989;-78
2024/01/11 20:42:48;;;;;;;;;;;;;;;17.28;38.45;101287.88;10327341;28;790;-78
2024/01/11 20:47:44;;;;;;;;;;;;;;;17.27;38.19;101290.53;10327139;28;830;-78
2024/01/11 20:52:40;;;;;;;;;;;;;;;17.22;38.41;101301.16;10327321;28;907;-78
2024/01/11 20:57:36;;;;;;;;;;;;;;;17.23;38.38;101308.16;10326674;28;1898;-78
2024/01/11 21:02:32;;;;;;;;;;;;;;;17.21;38.55;101317.88;10325976;28;837;-78
2024/01/11 21:07:28;;;;;;;;;;;;;;;17.22;38.48;101329.28;10325950;28;1121;-78
2024/01/11 21:12:24;;;;;;;;;;;;;;;17.05;38.81;101338.28;10326884;28;867;-78
2024/01/11 21:17:20;;;;;;;;;;;;;;;17.09;38.84;101334.72;10326013;28;1902;-78
2024/01/11 21:22:17;;;;;;;;;;;;;;;17.12;38.50;101328.53;10326155;28;864;-78
2024/01/11 21:27:13;;;;;;;;;;;;;;;17.13;38.27;101325.00;10325781;28;980;-78
2024/01/11 21:32:09;;;;;;;;;;;;;;;17.13;38.55;101325.00;10325506;28;790;-77
2024/01/11 21:37:05;;;;;;;;;;;;;;;17.06;38.57;101326.88;10325986;28;1988;-77
2024/01/11 21:42:01;;;;;;;;;;;;;;;17.04;38.58;101330.41;10324905;28;784;-78
2024/01/11 21:46:57;;;;;;;;;;;;;;;17.04;38.47;101311.97;10324841;28;830;-77
2024/01/11 21:51:52;;;;;;;;;;;;;;;16.98;38.83;101327.88;10326101;28;924;-78
2024/01/11 21:56:48;;;;;;;;;;;;;;;16.92;39.00;101330.59;10324533;28;1962;-78
2024/01/11 22:01:44;;;;;;;;;;;;;;;16.88;39.02;101335.03;10324943;28;862;-78
2024/01/11 22:06:40;;;;;;;;;;;;;;;16.87;39.00;101320.13;10325611;28;826;-77
2024/01/11 22:11:36;;;;;;;;;;;;;;;16.88;38.83;101323.66;10325568;28;821;-78
2024/01/11 22:16:32;;;;;;;;;;;;;;;16.81;38.94;101326.34;10325398;28;1898;-78
2024/01/11 22:21:28;;;;;;;;;;;;;;;16.80;39.11;101343.03;10325577;28;909;-77
2024/01/11 22:26:28;;;;;;;;;;;;;;;16.80;39.01;101350.94;10324676;28;847;-78
2024/01/11 22:31:24;;;;;;;;;;;;;;;16.75;38.89;101342.22;10324537;28;864;-77
2024/01/11 22:36:22;;;;;;;;;;;;;;;16.75;39.09;101346.59;10323935;28;1965;-77
2024/01/11 22:41:18;;;;;;;;;;;;;;;16.74;39.20;101342.22;10327664;28;849;-78
2024/01/11 22:46:13;;;;;;;;;;;;;;;16.74;38.93;101342.22;10331873;28;841;-77
2024/01/11 22:51:10;;;;;;;;;;;;;;;16.73;39.09;101328.19;10331848;28;910;-77
2024/01/11 22:56:06;;;;;;;;;;;;;;;16.73;39.14;101341.34;10331374;28;1943;-77
2024/01/11 23:01:02;;;;;;;;;;;;;;;16.72;39.08;101334.34;10331728;28;791;-78
2024/01/11 23:05:57;;;;;;;;;;;;;;;16.70;38.99;101330.88;10330477;28;889;-77
2024/01/11 23:10:53;;;;;;;;;;;;;;;16.72;39.05;101322.97;10330959;28;1031;-77
2024/01/11 23:15:49;;;;;;;;;;;;;;;16.70;38.95;101322.09;10330698;28;1886;-77
2024/01/11 23:20:45;;;;;;;;;;;;;;;16.72;39.15;101326.44;10330653;28;858;-78
2024/01/11 23:25:41;;;;;;;;;;;;;;;16.71;39.15;101308.03;10330416;28;759;-77
2024/01/11 23:30:37;;;;;;;;;;;;;;;16.69;38.93;101310.69;10331515;28;817;-77
2024/01/11 23:35:33;;;;;;;;;;;;;;;16.69;38.96;101302.81;10329558;28;1971;-77
2024/01/11 23:40:29;;;;;;;;;;;;;;;16.69;38.95;101302.81;10330670;28;794;-78
2024/01/11 23:45:25;;;;;;;;;;;;;;;16.65;39.19;101301.97;10329706;28;768;-77
2024/01/11 23:50:21;;;;;;;;;;;;;;;16.67;39.04;101295.81;10329492;28;772;-76
2024/01/11 23:55:17;;;;;;;;;;;;;;;16.66;39.02;101284.38;10328737;28;765;-77
